Time;durP1;ratioP1;P1;durP2;ratioP2;P2;SDS_P1;SDS_P2;PMS_P1;PMS_P2;Temp;Humidity;BMP_temperature;BMP_pressure;BME280_temperature;BME280_humidity;BME280_pressure;Samples;Min_cycle;Max_cycle;Signal;HPM_P1;HPM_P2
2022/07/09 00:01:54;;;;;;;4.07;3.28;;;18.70;90.40;;;;;;5070760;28;20029;-61
2022/07/09 00:04:20;;;;;;;4.05;3.30;;;18.70;90.50;;;;;;5069237;28;20388;-61
2022/07/09 00:06:45;;;;;;;4.30;1.58;;;18.60;90.60;;;;;;5070543;28;20060;-61
2022/07/09 00:09:12;;;;;;;2.38;1.30;;;18.50;90.70;;;;;;5070420;28;20344;-61
2022/07/09 00:11:38;;;;;;;1.35;1.10;;;18.40;90.90;;;;;;5067902;28;20029;-61
2022/07/09 00:14:04;;;;;;;1.38;1.25;;;18.30;91.00;;;;;;5069092;28;20089;-61
2022/07/09 00:16:29;;;;;;;3.83;2.25;;;18.30;91.10;;;;;;5071015;28;20077;-61
2022/07/09 00:18:55;;;;;;;4.10;3.08;;;18.20;91.20;;;;;;5068458;28;20024;-61
2022/07/09 00:21:20;;;;;;;5.63;4.22;;;18.20;91.20;;;;;;5069886;28;20059;-60
2022/07/09 00:23:46;;;;;;;4.65;3.97;;;18.20;91.20;;;;;;5070018;28;20020;-61
2022/07/09 00:26:12;;;;;;;4.15;3.75;;;18.30;91.30;;;;;;5082149;28;20016;-60
2022/07/09 00:28:37;;;;;;;5.10;4.13;;;18.20;91.40;;;;;;5078500;28;20017;-60
2022/07/09 00:31:03;;;;;;;5.50;3.97;;;18.30;91.50;;;;;;5069739;28;20042;-61
2022/07/09 00:33:28;;;;;;;6.22;4.22;;;18.30;91.60;;;;;;5069571;28;20016;-61
2022/07/09 00:35:54;;;;;;;6.60;4.70;;;18.20;91.60;;;;;;5066192;28;20063;-60
2022/07/09 00:38:19;;;;;;;5.53;4.38;;;18.20;91.70;;;;;;5070885;28;20024;-61
2022/07/09 00:40:45;;;;;;;4.80;4.28;;;18.20;91.80;;;;;;5053649;28;20031;-61
2022/07/09 00:43:21;;;;;;;5.43;4.35;;;18.20;91.90;;;;;;5069305;28;20024;-61
2022/07/09 00:45:47;;;;;;;7.53;4.93;;;18.20;91.90;;;;;;5069848;28;20472;-60
2022/07/09 00:48:13;;;;;;;5.22;4.00;;;18.20;91.90;;;;;;5069112;28;20024;-61
2022/07/09 00:50:41;;;;;;;5.40;4.03;;;18.20;92.00;;;;;;5051477;28;20070;-60
2022/07/09 00:53:12;;;;;;;6.00;4.25;;;18.20;92.10;;;;;;5067527;28;20115;-61
2022/07/09 00:55:38;;;;;;;4.95;4.45;;;18.20;92.10;;;;;;5073973;28;20072;-61
2022/07/09 00:58:04;;;;;;;7.13;4.93;;;18.10;92.20;;;;;;5072607;28;20016;-61
2022/07/09 01:00:30;;;;;;;4.50;3.30;;;18.10;92.30;;;;;;5070792;28;20383;-61
2022/07/09 01:02:55;;;;;;;3.15;2.35;;;18.00;92.40;;;;;;5069800;28;20049;-61
2022/07/09 01:05:21;;;;;;;2.50;2.30;;;17.90;92.50;;;;;;5069029;28;20036;-61
2022/07/09 01:07:47;;;;;;;5.22;3.70;;;17.80;92.80;;;;;;5069168;28;20432;-61
2022/07/09 01:10:12;;;;;;;4.47;4.03;;;17.70;93.00;;;;;;5075737;28;20019;-61
2022/07/09 01:12:38;;;;;;;6.38;4.03;;;17.60;93.20;;;;;;5081566;28;20025;-61
2022/07/09 01:15:05;;;;;;;5.60;4.13;;;17.60;93.40;;;;;;5054038;28;20116;-61
2022/07/09 01:17:38;;;;;;;4.30;3.50;;;17.50;93.50;;;;;;5069446;28;20028;-61
2022/07/09 01:20:04;;;;;;;4.10;3.08;;;17.50;93.60;;;;;;5070912;28;20028;-61
2022/07/09 01:22:29;;;;;;;2.60;1.95;;;17.50;93.70;;;;;;5068778;28;20067;-60
2022/07/09 01:24:56;;;;;;;3.15;2.00;;;17.40;93.70;;;;;;5067973;28;20559;-60
2022/07/09 01:27:22;;;;;;;1.48;1.23;;;17.40;93.80;;;;;;5070279;28;20021;-61
2022/07/09 01:29:49;;;;;;;2.15;1.63;;;17.40;93.90;;;;;;5069126;28;20109;-60
2022/07/09 01:32:16;;;;;;;3.17;1.90;;;17.40;94.00;;;;;;5069016;28;20032;-61
2022/07/09 01:34:41;;;;;;;2.75;1.95;;;17.30;94.00;;;;;;5062772;28;20017;-61
2022/07/09 01:37:07;;;;;;;3.13;2.38;;;17.20;94.10;;;;;;5070030;28;20495;-61
2022/07/09 01:39:32;;;;;;;3.60;3.03;;;17.20;94.20;;;;;;5060823;28;20020;-61
2022/07/09 01:41:58;;;;;;;5.00;3.97;;;17.20;94.60;;;;;;5087556;28;20048;-60
2022/07/09 01:44:24;;;;;;;4.10;2.92;;;17.20;94.40;;;;;;5072167;28;20487;-61
2022/07/09 01:46:50;;;;;;;4.45;2.72;;;17.20;94.50;;;;;;5070501;28;20033;-60
2022/07/09 01:49:15;;;;;;;2.63;2.42;;;17.10;94.50;;;;;;5071295;28;20025;-60
2022/07/09 01:51:41;;;;;;;1.63;1.20;;;17.00;94.70;;;;;;5055671;28;20016;-61
2022/07/09 01:54:06;;;;;;;4.30;1.45;;;17.00;94.80;;;;;;5092728;28;20077;-61
2022/07/09 01:56:32;;;;;;;6.63;1.20;;;16.90;94.80;;;;;;5069894;28;20116;-61
2022/07/09 01:58:58;;;;;;;1.48;0.93;;;16.80;94.90;;;;;;5071338;28;20052;-60
2022/07/09 02:01:24;;;;;;;3.80;0.75;;;16.60;95.10;;;;;;5072934;28;20074;-61
2022/07/09 02:03:49;;;;;;;3.45;1.30;;;16.60;95.50;;;;;;5073474;28;20544;-61
2022/07/09 02:06:15;;;;;;;2.85;2.53;;;16.60;95.40;;;;;;5073109;28;20027;-60
2022/07/09 02:08:41;;;;;;;5.75;3.90;;;16.60;95.50;;;;;;5071072;28;20538;-60
2022/07/09 02:11:07;;;;;;;5.43;4.00;;;16.50;95.50;;;;;;5071739;28;20028;-61
2022/07/09 02:13:33;;;;;;;5.57;3.90;;;16.60;95.60;;;;;;5052731;28;20028;-60
2022/07/09 02:16:00;;;;;;;6.15;4.30;;;16.60;95.70;;;;;;5072809;28;20031;-61
2022/07/09 02:18:26;;;;;;;5.45;4.03;;;16.60;95.70;;;;;;5070448;28;20025;-60
2022/07/09 02:20:51;;;;;;;5.97;4.80;;;16.60;95.70;;;;;;5073588;28;20565;-60
2022/07/09 02:23:17;;;;;;;5.65;4.57;;;16.60;95.70;;;;;;5070100;28;20426;-60
2022/07/09 02:25:42;;;;;;;6.05;4.55;;;16.60;95.70;;;;;;5072341;28;20441;-62
2022/07/09 02:28:08;;;;;;;6.68;5.38;;;16.60;96.00;;;;;;5070311;28;20029;-61
2022/07/09 02:30:36;;;;;;;5.97;4.50;;;16.60;95.80;;;;;;5070858;28;20032;-60
2022/07/09 02:33:03;;;;;;;5.72;4.18;;;16.60;95.90;;;;;;5071522;28;20047;-60
2022/07/09 02:35:29;;;;;;;5.40;4.63;;;16.50;95.90;;;;;;5072291;28;20518;-61
2022/07/09 02:37:54;;;;;;;8.60;4.53;;;16.50;96.00;;;;;;5070803;28;20063;-60
2022/07/09 02:40:20;;;;;;;4.35;3.92;;;16.50;96.20;;;;;;5068884;28;20392;-60
2022/07/09 02:42:45;;;;;;;5.05;3.50;;;16.40;96.30;;;;;;5072245;28;20499;-60
2022/07/09 02:45:11;;;;;;;3.83;3.30;;;16.40;96.40;;;;;;5069966;28;20027;-60
2022/07/09 02:47:37;;;;;;;3.55;3.17;;;16.30;96.40;;;;;;5071025;28;20015;-60
2022/07/09 02:50:02;;;;;;;6.00;3.67;;;16.30;96.50;;;;;;5072296;28;20067;-60
2022/07/09 02:52:28;;;;;;;4.18;3.78;;;16.10;96.60;;;;;;5071822;28;20028;-60
2022/07/09 02:54:53;;;;;;;4.50;3.92;;;16.10;96.90;;;;;;5070490;28;20391;-60
2022/07/09 02:57:19;;;;;;;5.18;4.28;;;16.10;96.90;;;;;;5070415;28;20056;-61
2022/07/09 02:59:45;;;;;;;7.53;4.55;;;16.10;96.90;;;;;;5090041;28;20503;-60
2022/07/09 03:02:11;;;;;;;6.32;4.95;;;16.10;96.90;;;;;;5089248;28;20033;-60
2022/07/09 03:04:36;;;;;;;7.30;5.13;;;16.10;96.90;;;;;;5072455;28;20027;-60
2022/07/09 03:07:02;;;;;;;7.38;5.50;;;16.10;96.90;;;;;;5070758;28;20028;-60
2022/07/09 03:09:28;;;;;;;6.45;5.53;;;16.20;96.90;;;;;;5052940;28;20017;-60
2022/07/09 03:11:54;;;;;;;5.90;5.18;;;16.20;96.90;;;;;;5070336;28;20384;-60
2022/07/09 03:14:20;;;;;;;7.53;5.43;;;16.10;96.90;;;;;;5057719;28;20020;-60
2022/07/09 03:16:45;;;;;;;6.95;5.90;;;16.20;97.00;;;;;;5071199;28;20392;-60
2022/07/09 03:19:11;;;;;;;7.07;5.43;;;16.10;97.00;;;;;;5070858;28;20071;-60
2022/07/09 03:21:36;;;;;;;5.70;5.10;;;16.10;97.10;;;;;;5067407;28;20448;-60
2022/07/09 03:24:02;;;;;;;6.65;5.47;;;16.10;97.20;;;;;;5055044;28;20384;-60
2022/07/09 03:26:28;;;;;;;7.88;6.22;;;16.10;97.20;;;;;;5069912;28;20048;-60
2022/07/09 03:28:53;;;;;;;6.40;5.30;;;16.00;97.30;;;;;;5070786;28;20020;-60
2022/07/09 03:31:19;;;;;;;5.88;4.55;;;16.00;97.30;;;;;;5054813;28;20020;-61
2022/07/09 03:33:44;;;;;;;5.20;4.43;;;16.00;97.30;;;;;;5072006;28;20131;-60
2022/07/09 03:36:10;;;;;;;4.97;3.33;;;15.90;97.30;;;;;;5089401;28;20499;-60
2022/07/09 03:38:35;;;;;;;3.90;3.45;;;15.90;97.40;;;;;;5069956;28;20029;-60
2022/07/09 03:41:01;;;;;;;4.05;3.65;;;15.90;97.40;;;;;;5069338;28;20055;-61
2022/07/09 03:43:26;;;;;;;5.15;4.13;;;15.80;97.30;;;;;;5071453;28;20048;-61
2022/07/09 03:45:52;;;;;;;4.70;4.18;;;15.90;97.40;;;;;;5071302;28;20021;-60
2022/07/09 03:48:17;;;;;;;5.07;4.32;;;15.80;97.40;;;;;;5067154;28;20039;-61
2022/07/09 03:50:43;;;;;;;5.18;3.85;;;15.90;97.40;;;;;;5071726;28;20017;-60
2022/07/09 03:53:09;;;;;;;5.00;3.58;;;15.90;97.50;;;;;;5071003;28;20032;-61
2022/07/09 03:55:34;;;;;;;4.80;3.80;;;15.90;97.60;;;;;;5069356;28;20480;-60
2022/07/09 03:58:00;;;;;;;5.32;3.78;;;15.90;97.70;;;;;;5069312;28;20029;-61
2022/07/09 04:00:28;;;;;;;5.65;4.70;;;15.90;97.70;;;;;;5071167;28;20052;-60
2022/07/09 04:02:53;;;;;;;5.53;4.43;;;15.80;97.70;;;;;;5070348;28;20045;-61
2022/07/09 04:05:19;;;;;;;6.32;4.90;;;15.90;97.80;;;;;;5070218;28;20031;-61
2022/07/09 04:07:45;;;;;;;5.50;4.85;;;15.90;97.90;;;;;;5072962;28;20027;-60
2022/07/09 04:10:10;;;;;;;4.30;3.78;;;15.90;97.90;;;;;;5067479;28;20040;-61
2022/07/09 04:12:36;;;;;;;3.70;2.95;;;16.00;97.90;;;;;;5068732;28;20369;-60
2022/07/09 04:15:02;;;;;;;4.13;2.97;;;16.00;98.00;;;;;;5071244;28;20066;-60
2022/07/09 04:17:27;;;;;;;5.55;4.00;;;16.00;98.00;;;;;;5061939;28;20028;-61
2022/07/09 04:19:53;;;;;;;4.18;3.58;;;16.00;98.00;;;;;;5070449;28;20559;-61
2022/07/09 04:22:18;;;;;;;4.45;3.65;;;16.00;98.10;;;;;;5068027;28;20027;-61
2022/07/09 04:24:44;;;;;;;4.75;3.55;;;16.00;98.10;;;;;;5069029;28;20094;-60
2022/07/09 04:27:10;;;;;;;6.45;4.38;;;16.10;98.20;;;;;;5068017;28;20496;-60
2022/07/09 04:29:35;;;;;;;4.10;3.65;;;16.10;98.30;;;;;;5067899;28;20056;-60
2022/07/09 04:32:01;;;;;;;10.63;7.22;;;16.10;98.30;;;;;;5065399;28;20366;-60
2022/07/09 04:34:26;;;;;;;6.63;5.93;;;16.00;98.50;;;;;;5066548;28;20036;-60
2022/07/09 04:36:52;;;;;;;7.15;5.78;;;16.00;98.70;;;;;;5068389;28;20039;-60
2022/07/09 04:39:17;;;;;;;6.07;4.82;;;16.00;98.90;;;;;;5067819;28;20024;-61
2022/07/09 04:41:43;;;;;;;6.97;6.03;;;16.00;99.20;;;;;;5065698;28;20028;-60
2022/07/09 04:44:11;;;;;;;7.25;5.10;;;16.00;99.00;;;;;;5066520;28;20032;-60
2022/07/09 04:46:36;;;;;;;7.05;5.60;;;16.10;99.10;;;;;;5065379;28;20013;-60
2022/07/09 04:49:02;;;;;;;8.80;6.10;;;16.10;99.20;;;;;;5068700;28;20054;-61
2022/07/09 04:51:27;;;;;;;8.18;6.68;;;16.10;99.20;;;;;;5083466;28;20033;-60
2022/07/09 04:53:53;;;;;;;8.27;6.40;;;16.10;99.20;;;;;;5066163;28;20491;-60
2022/07/09 04:56:18;;;;;;;10.45;8.20;;;16.20;99.30;;;;;;5065777;28;20484;-60
2022/07/09 04:58:51;;;;;;;8.88;7.28;;;16.20;99.30;;;;;;5067695;28;20025;-60
2022/07/09 05:01:18;;;;;;;9.30;7.78;;;16.20;99.40;;;;;;5065181;28;20071;-61
2022/07/09 05:03:44;;;;;;;13.68;8.43;;;16.30;99.40;;;;;;5067814;28;20048;-61
2022/07/09 05:06:09;;;;;;;14.20;9.15;;;16.30;99.40;;;;;;5067565;28;20027;-61
2022/07/09 05:08:35;;;;;;;11.32;9.35;;;16.40;99.50;;;;;;5066385;28;20040;-60
2022/07/09 05:11:00;;;;;;;13.52;10.93;;;16.40;99.60;;;;;;5066277;28;20112;-60
2022/07/09 05:13:26;;;;;;;16.02;12.10;;;16.50;99.70;;;;;;5086086;28;20024;-60
2022/07/09 05:15:52;;;;;;;18.75;15.25;;;16.50;99.90;;;;;;5071470;28;20110;-60
2022/07/09 05:18:17;;;;;;;19.65;13.82;;;16.40;99.90;;;;;;5059943;28;20409;-60
2022/07/09 05:20:43;;;;;;;16.98;13.65;;;16.40;99.90;;;;;;5067796;28;20029;-60
2022/07/09 05:23:08;;;;;;;14.10;12.18;;;16.40;99.90;;;;;;5070487;28;20029;-60
2022/07/09 05:25:33;;;;;;;16.23;11.38;;;16.40;99.90;;;;;;5066296;28;20453;-60
2022/07/09 05:27:59;;;;;;;16.63;12.80;;;16.50;99.90;;;;;;5070696;28;20033;-60
2022/07/09 05:30:25;;;;;;;14.52;12.02;;;16.60;99.90;;;;;;5067355;28;20096;-60
2022/07/09 05:32:50;;;;;;;17.77;14.05;;;16.60;99.90;;;;;;5067299;28;20151;-60
2022/07/09 05:35:17;;;;;;;17.80;12.88;;;16.70;99.90;;;;;;5054359;28;20086;-60
2022/07/09 05:37:43;;;;;;;15.00;12.02;;;16.80;99.90;;;;;;5067333;28;20024;-60
2022/07/09 05:40:11;;;;;;;17.33;12.48;;;16.90;99.90;;;;;;5072236;28;20020;-61
2022/07/09 05:42:37;;;;;;;15.15;12.60;;;16.90;99.90;;;;;;5073677;28;20426;-60
2022/07/09 05:45:04;;;;;;;18.23;12.77;;;17.00;99.90;;;;;;5070060;28;20104;-60
2022/07/09 05:47:29;;;;;;;17.60;12.88;;;17.00;99.90;;;;;;5052356;28;20066;-60
2022/07/09 05:49:55;;;;;;;15.68;12.18;;;17.10;99.90;;;;;;5071518;28;20480;-60
2022/07/09 05:52:20;;;;;;;13.38;11.00;;;17.20;99.90;;;;;;5054311;28;20044;-60
2022/07/09 05:54:46;;;;;;;13.90;11.80;;;17.30;99.90;;;;;;5063612;28;20159;-60
2022/07/09 05:57:11;;;;;;;14.48;10.88;;;17.40;99.90;;;;;;5066320;28;20049;-60
2022/07/09 05:59:37;;;;;;;15.73;12.02;;;17.50;99.90;;;;;;5052377;28;20020;-60
2022/07/09 06:02:05;;;;;;;14.73;11.10;;;17.50;99.90;;;;;;5062738;28;20028;-60
2022/07/09 06:04:30;;;;;;;13.68;10.85;;;17.60;99.90;;;;;;5069591;28;20108;-60
2022/07/09 06:06:56;;;;;;;13.43;11.88;;;17.70;99.90;;;;;;5066804;28;20481;-60
2022/07/09 06:09:21;;;;;;;15.25;11.77;;;17.80;99.90;;;;;;5073461;28;20029;-60
2022/07/09 06:11:47;;;;;;;13.82;11.18;;;17.80;99.90;;;;;;5071770;28;20472;-60
2022/07/09 06:14:12;;;;;;;13.35;10.88;;;17.90;99.90;;;;;;5068801;28;20036;-60
2022/07/09 06:16:38;;;;;;;12.93;11.07;;;17.90;99.90;;;;;;5067954;28;20060;-60
2022/07/09 06:19:04;;;;;;;14.48;11.25;;;18.00;99.90;;;;;;5069773;28;20103;-60
2022/07/09 06:21:29;;;;;;;11.88;10.05;;;18.10;99.90;;;;;;5073626;28;20525;-60
2022/07/09 06:23:54;;;;;;;15.07;11.80;;;18.10;99.90;;;;;;5058679;28;20036;-60
2022/07/09 06:26:33;;;;;;;;;;;;;;;;;;;;;
2022/07/09 06:28:59;;;;;;;13.20;11.13;;;18.30;99.90;;;;;;5042211;28;20385;-61
2022/07/09 06:31:25;;;;;;;13.85;10.73;;;18.40;99.90;;;;;;5058495;28;20651;-60
2022/07/09 06:33:58;;;;;;;13.63;11.63;;;18.40;99.90;;;;;;5051200;28;20483;-61
2022/07/09 06:36:23;;;;;;;13.57;10.25;;;18.50;99.90;;;;;;5064241;28;20062;-61
2022/07/09 06:41:33;;;;;;;10.85;9.00;;;18.60;99.90;;;;;;5073539;28;20055;-61
2022/07/09 06:43:59;;;;;;;10.43;8.32;;;18.60;99.90;;;;;;5058360;28;20376;-60
2022/07/09 06:46:24;;;;;;;10.98;8.43;;;18.70;99.90;;;;;;5059203;28;20029;-60
2022/07/09 06:48:50;;;;;;;13.65;10.10;;;18.80;99.90;;;;;;5056754;28;20021;-61
2022/07/09 06:51:15;;;;;;;11.88;10.45;;;18.80;99.90;;;;;;5059482;28;20574;-61
2022/07/09 06:53:41;;;;;;;11.82;8.57;;;18.80;99.90;;;;;;5061327;28;20028;-60
2022/07/09 06:56:07;;;;;;;10.80;8.80;;;18.90;99.90;;;;;;5060007;28;20165;-60
2022/07/09 06:58:32;;;;;;;11.32;8.70;;;18.90;99.90;;;;;;5064703;28;20434;-61
2022/07/09 07:00:58;;;;;;;9.35;8.20;;;19.00;99.90;;;;;;5059540;28;20473;-60
2022/07/09 07:03:24;;;;;;;8.82;7.53;;;19.10;99.90;;;;;;5067043;28;20041;-60
2022/07/09 07:05:49;;;;;;;8.52;6.93;;;19.20;99.90;;;;;;5066886;28;20028;-60
2022/07/09 07:08:37;;;;;;;7.35;6.38;;;19.30;99.70;;;;;;5062597;28;20070;-61
2022/07/09 07:14:33;;;;;;;7.82;6.20;;;19.50;99.20;;;;;;5061666;28;20074;-60
2022/07/09 07:16:59;;;;;;;7.47;5.13;;;19.60;99.20;;;;;;5052899;28;20427;-60
2022/07/09 07:19:49;;;;;;;7.25;6.10;;;19.70;99.00;;;;;;5054998;28;20111;-60
2022/07/09 07:22:15;;;;;;;8.90;5.63;;;19.80;98.70;;;;;;5059699;28;20029;-61
2022/07/09 07:24:40;;;;;;;7.65;6.80;;;19.90;98.60;;;;;;5076334;28;20105;-61
2022/07/09 07:33:27;;;;;;;9.15;6.35;;;20.30;97.90;;;;;;5015661;28;20376;-61
2022/07/09 07:35:52;;;;;;;8.07;7.13;;;20.30;97.90;;;;;;5056860;28;20021;-61
2022/07/09 07:38:18;;;;;;;7.40;6.35;;;20.40;97.60;;;;;;5058014;28;20036;-61
2022/07/09 07:44:16;;;;;;;5.82;5.22;;;20.60;97.10;;;;;;5020848;28;20529;-61
2022/07/09 07:46:41;;;;;;;8.18;6.60;;;20.70;96.90;;;;;;5057351;28;20033;-61
2022/07/09 07:49:07;;;;;;;7.35;6.00;;;20.80;96.80;;;;;;5064366;28;20036;-61
2022/07/09 07:51:32;;;;;;;7.80;5.30;;;20.80;96.60;;;;;;5059110;28;20025;-61
2022/07/09 07:54:59;;;;;;;;;;;;;;;;;;;;;
2022/07/09 07:58:14;;;;;;;;;;;;;;;;;;;;;
2022/07/09 08:00:40;;;;;;;8.65;5.75;;;21.00;95.90;;;;;;5047207;28;20041;-62
2022/07/09 08:03:06;;;;;;;8.18;7.00;;;21.10;95.80;;;;;;5091063;28;20042;-62
2022/07/09 08:05:32;;;;;;;8.38;5.65;;;21.20;95.40;;;;;;5109284;28;20028;-61
2022/07/09 08:07:57;;;;;;;6.88;6.18;;;21.20;95.30;;;;;;5094114;28;20020;-62
2022/07/09 08:10:24;;;;;;;8.50;6.05;;;21.20;95.00;;;;;;5083601;28;20020;-61
2022/07/09 08:12:53;;;;;;;5.38;4.75;;;21.30;94.90;;;;;;5098159;28;20472;-61
2022/07/09 08:15:46;;;;;;;10.52;8.30;;;21.40;94.90;;;;;;5078459;28;20465;-61
2022/07/09 08:18:33;;;;;;;10.52;8.05;;;21.50;94.50;;;;;;5079124;28;20024;-61
2022/07/09 08:20:59;;;;;;;10.55;7.35;;;21.50;94.50;;;;;;5093614;28;20044;-62
2022/07/09 08:23:40;;;;;;;;;;;;;;;;;;;;;
2022/07/09 08:26:06;;;;;;;14.77;11.57;;;21.70;94.30;;;;;;5076162;28;20029;-62
2022/07/09 08:28:55;;;;;;;10.02;8.60;;;21.70;93.70;;;;;;5081217;28;20572;-62
2022/07/09 08:31:22;;;;;;;9.18;8.27;;;21.80;93.70;;;;;;5077640;28;20058;-61
2022/07/09 08:33:48;;;;;;;8.73;7.47;;;21.70;93.50;;;;;;5083541;28;20436;-62
2022/07/09 08:36:14;;;;;;;8.38;6.53;;;21.90;93.40;;;;;;5102243;27;20099;-63
2022/07/09 08:38:40;;;;;;;7.80;6.20;;;22.00;93.30;;;;;;5083376;28;20023;-62
2022/07/09 08:41:06;;;;;;;6.07;5.47;;;22.10;93.20;;;;;;5090141;28;20095;-62
2022/07/09 08:43:37;;;;;;;8.68;7.43;;;22.20;93.10;;;;;;5089094;28;20016;-62
2022/07/09 08:46:04;;;;;;;7.53;6.75;;;22.30;92.70;;;;;;5080429;28;20476;-62
2022/07/09 08:48:33;;;;;;;11.27;8.50;;;22.40;92.60;;;;;;5082511;28;20036;-62
2022/07/09 08:51:01;;;;;;;7.47;6.53;;;22.50;92.30;;;;;;5082160;28;20099;-62
2022/07/09 08:53:30;;;;;;;8.23;7.43;;;22.50;92.30;;;;;;5080237;28;20366;-62
2022/07/09 08:55:56;;;;;;;;;;;22.70;92.10;;;;;;5076810;28;20049;-62
2022/07/09 08:58:22;;;;;;;8.00;7.20;;;22.70;91.80;;;;;;5075741;28;19960;-61
2022/07/09 09:00:50;;;;;;;6.95;5.57;;;22.80;91.50;;;;;;5085045;28;20056;-62
2022/07/09 09:03:29;;;;;;;6.90;6.05;;;22.90;91.30;;;;;;5080309;28;20065;-62
2022/07/09 09:06:08;;;;;;;6.53;5.47;;;23.00;91.10;;;;;;5074944;28;20488;-62
2022/07/09 09:08:41;;;;;;;6.93;6.05;;;23.00;90.90;;;;;;5073569;28;20479;-62
2022/07/09 09:11:16;;;;;;;11.25;6.10;;;22.90;90.80;;;;;;5064863;28;20021;-62
2022/07/09 09:13:43;;;;;;;9.75;8.25;;;23.00;90.80;;;;;;5061474;28;20032;-62
2022/07/09 09:16:10;;;;;;;10.00;6.93;;;23.00;90.70;;;;;;5054761;28;20055;-62
2022/07/09 09:18:37;;;;;;;9.80;6.70;;;23.10;90.60;;;;;;5056793;28;20020;-62
2022/07/09 09:21:07;;;;;;;9.50;5.20;;;23.20;90.50;;;;;;5060876;28;20013;-62
2022/07/09 09:23:48;;;;;;;7.68;6.75;;;23.20;90.10;;;;;;5077457;28;20021;-62
2022/07/09 09:26:15;;;;;;;8.10;6.90;;;23.30;89.80;;;;;;5067660;28;20021;-62
2022/07/09 09:29:00;;;;;;;8.40;6.80;;;23.20;90.00;;;;;;5079859;28;20099;-62
2022/07/09 09:31:33;;;;;;;6.00;4.95;;;23.20;90.00;;;;;;5072479;28;20028;-62
2022/07/09 09:34:12;;;;;;;5.60;5.07;;;23.10;90.00;;;;;;5076815;28;20020;-62
2022/07/09 09:37:22;;;;;;;6.28;5.10;;;23.10;89.50;;;;;;5071170;28;20024;-62
2022/07/09 09:39:51;;;;;;;9.90;6.82;;;23.10;89.70;;;;;;5071241;28;20060;-62
2022/07/09 09:42:16;;;;;;;;;;;23.10;89.30;;;;;;5073066;28;20021;-62
2022/07/09 09:44:44;;;;;;;6.88;5.50;;;23.20;89.30;;;;;;5064319;28;19905;-62
2022/07/09 09:47:40;;;;;;;4.97;4.47;;;23.40;89.20;;;;;;5061994;28;20021;-62
2022/07/09 09:50:13;;;;;;;7.07;5.80;;;23.60;88.40;;;;;;5063070;28;20160;-62
2022/07/09 09:52:47;;;;;;;6.50;5.18;;;23.80;87.30;;;;;;5081489;28;20123;-62
2022/07/09 09:55:17;;;;;;;6.30;5.00;;;24.00;86.80;;;;;;5060717;28;20052;-62
2022/07/09 09:57:42;;;;;;;7.38;6.10;;;24.10;86.50;;;;;;5066586;28;20078;-62
2022/07/09 10:00:13;;;;;;;6.75;5.32;;;24.30;85.70;;;;;;5071894;28;20024;-62
2022/07/09 10:02:50;;;;;;;7.63;4.20;;;24.30;84.80;;;;;;5074284;28;20017;-62
2022/07/09 10:05:15;;;;;;;5.97;4.22;;;24.50;84.60;;;;;;5059972;28;20017;-62
2022/07/09 10:07:47;;;;;;;5.25;4.75;;;24.50;84.30;;;;;;5058598;28;20419;-62
2022/07/09 10:10:26;;;;;;;5.75;5.13;;;24.50;84.10;;;;;;5064131;28;20044;-62
2022/07/09 10:12:57;;;;;;;7.90;4.50;;;24.50;84.00;;;;;;5063592;28;20028;-62
2022/07/09 10:15:26;;;;;;;7.05;6.28;;;24.40;84.20;;;;;;5069222;28;20081;-62
2022/07/09 10:17:52;;;;;;;;;;;24.50;83.90;;;;;;5065279;28;20021;-62
2022/07/09 10:20:31;;;;;;;7.22;5.20;;;24.50;83.70;;;;;;5067062;28;19904;-62
2022/07/09 10:22:57;;;;;;;5.00;4.45;;;24.60;83.00;;;;;;5065794;28;20147;-62
2022/07/09 10:25:28;;;;;;;4.70;3.55;;;24.60;83.00;;;;;;5072646;28;20111;-62
2022/07/09 10:27:57;;;;;;;5.90;4.68;;;24.70;82.90;;;;;;5066262;28;20021;-62
2022/07/09 10:30:28;;;;;;;5.35;4.13;;;24.80;82.30;;;;;;5068759;28;20362;-62
2022/07/09 10:33:32;;;;;;;4.70;3.60;;;25.00;81.90;;;;;;5067321;28;20024;-62
2022/07/09 10:36:14;;;;;;;6.90;4.13;;;25.20;81.20;;;;;;5027877;28;20043;-62
2022/07/09 10:38:39;;;;;;;4.85;4.38;;;25.40;80.80;;;;;;5070942;28;20066;-62
2022/07/09 10:41:21;;;;;;;7.43;4.63;;;25.40;79.10;;;;;;5069545;28;20016;-62
2022/07/09 10:43:51;;;;;;;4.30;3.83;;;25.40;78.50;;;;;;5066202;28;20019;-62
2022/07/09 10:46:17;;;;;;;6.93;4.00;;;25.20;78.70;;;;;;5074432;28;20028;-62
2022/07/09 10:48:45;;;;;;;5.03;4.50;;;25.20;79.00;;;;;;5068156;28;20046;-62
2022/07/09 10:51:19;;;;;;;3.70;3.40;;;25.30;78.50;;;;;;5081464;28;20059;-62
2022/07/09 10:53:45;;;;;;;3.15;2.50;;;25.30;78.30;;;;;;5078417;28;20059;-62
2022/07/09 10:56:11;;;;;;;3.10;1.90;;;25.10;78.10;;;;;;5060867;28;20080;-63
2022/07/09 10:58:46;;;;;;;4.00;1.73;;;25.10;77.60;;;;;;5059117;28;20028;-62
2022/07/09 11:01:18;;;;;;;2.65;1.92;;;25.20;77.10;;;;;;5064128;28;20093;-62
2022/07/09 11:03:53;;;;;;;1.90;1.30;;;25.40;76.20;;;;;;5079528;28;20039;-62
2022/07/09 11:06:19;;;;;;;1.85;1.50;;;25.60;75.40;;;;;;5055022;28;20025;-62
2022/07/09 11:09:03;;;;;;;2.83;1.20;;;25.80;73.60;;;;;;5067833;28;20123;-62
2022/07/09 11:11:29;;;;;;;2.15;1.02;;;25.90;73.20;;;;;;5069436;28;20120;-62
2022/07/09 11:13:56;;;;;;;7.00;0.98;;;26.00;73.80;;;;;;5064903;28;20453;-62
2022/07/09 11:16:23;;;;;;;1.58;1.00;;;26.10;72.80;;;;;;5079891;28;20052;-62
2022/07/09 11:18:49;;;;;;;1.33;1.00;;;26.30;72.50;;;;;;5062070;28;20531;-63
2022/07/09 11:21:22;;;;;;;1.70;0.88;;;26.40;72.00;;;;;;5073691;28;20103;-63
2022/07/09 11:23:50;;;;;;;2.40;0.70;;;26.30;70.50;;;;;;5063534;28;20017;-63
2022/07/09 11:26:16;;;;;;;1.20;0.80;;;26.30;70.30;;;;;;5070103;28;20021;-62
2022/07/09 11:28:44;;;;;;;0.70;0.60;;;26.40;70.20;;;;;;5075255;28;20023;-62
2022/07/09 11:31:09;;;;;;;1.23;0.55;;;26.40;69.90;;;;;;5088612;28;20012;-62
2022/07/09 11:36:21;;;;;;;0.65;0.50;;;26.40;70.30;;;;;;5067835;28;20078;-62
2022/07/09 11:38:47;;;;;;;0.77;0.40;;;26.40;69.60;;;;;;5066722;28;20028;-62
2022/07/09 11:41:18;;;;;;;1.05;0.70;;;26.40;69.60;;;;;;5060325;28;20021;-62
2022/07/09 11:43:51;;;;;;;1.15;0.50;;;26.50;68.60;;;;;;5065931;28;20020;-63
2022/07/09 11:46:18;;;;;;;0.80;0.60;;;26.70;68.00;;;;;;5057638;28;20021;-62
2022/07/09 11:48:58;;;;;;;1.13;0.60;;;26.70;68.00;;;;;;5052168;28;20389;-62
2022/07/09 11:51:39;;;;;;;1.58;0.70;;;26.90;67.00;;;;;;5052957;28;20427;-63
2022/07/09 11:54:05;;;;;;;1.13;0.40;;;27.10;66.80;;;;;;5070830;28;20049;-63
2022/07/09 11:56:45;;;;;;;0.65;0.40;;;27.20;66.50;;;;;;5076591;28;20083;-62
2022/07/09 11:59:11;;;;;;;0.93;0.50;;;27.20;66.40;;;;;;5072104;28;20020;-63
2022/07/09 12:01:38;;;;;;;1.00;0.60;;;27.30;66.10;;;;;;5096224;28;20375;-62
2022/07/09 12:04:04;;;;;;;1.55;0.50;;;27.40;64.20;;;;;;5074739;28;20028;-62
2022/07/09 12:06:29;;;;;;;1.08;0.60;;;27.40;63.80;;;;;;5070875;28;20029;-62
2022/07/09 12:09:14;;;;;;;1.02;0.60;;;27.40;62.70;;;;;;5073349;28;20483;-62
2022/07/09 12:11:39;;;;;;;1.30;0.50;;;27.40;61.50;;;;;;5063202;28;20100;-62
2022/07/09 12:14:05;;;;;;;3.08;0.57;;;27.30;62.50;;;;;;5058355;28;20103;-62
2022/07/09 12:16:36;;;;;;;1.08;0.40;;;27.20;62.50;;;;;;5061110;28;20380;-63
2022/07/09 12:19:01;;;;;;;2.50;0.50;;;27.10;62.30;;;;;;5063553;28;20032;-62
2022/07/09 12:21:27;;;;;;;1.88;0.40;;;27.10;62.70;;;;;;5061959;28;20021;-62
2022/07/09 12:24:44;;;;;;;1.58;0.93;;;27.20;62.90;;;;;;5069279;28;20020;-62
2022/07/09 12:27:09;;;;;;;1.30;0.57;;;27.40;62.70;;;;;;5072886;28;20024;-63
2022/07/09 12:29:38;;;;;;;1.58;0.60;;;27.50;62.00;;;;;;5066150;28;20031;-62
2022/07/09 12:32:04;;;;;;;2.05;0.50;;;27.70;61.20;;;;;;5063647;28;20033;-62
2022/07/09 12:34:30;;;;;;;2.20;0.50;;;27.80;61.20;;;;;;5068526;28;20048;-62
2022/07/09 12:36:56;;;;;;;2.22;0.45;;;27.80;61.10;;;;;;5070217;28;20104;-62
2022/07/09 12:39:22;;;;;;;1.48;0.50;;;27.90;60.00;;;;;;5063970;28;20124;-62
2022/07/09 12:41:58;;;;;;;0.65;0.35;;;27.80;59.20;;;;;;5061483;28;20016;-62
2022/07/09 12:44:24;;;;;;;0.90;0.50;;;27.80;59.20;;;;;;5068951;28;20021;-63
2022/07/09 12:46:53;;;;;;;0.80;0.45;;;27.90;59.10;;;;;;5057593;28;20029;-62
2022/07/09 12:49:31;;;;;;;;;;;;;;;;;;;;;
2022/07/09 12:51:57;;;;;;;2.75;0.50;;;28.10;58.70;;;;;;5068549;28;19904;-62
2022/07/09 12:54:23;;;;;;;2.55;1.10;;;28.10;58.00;;;;;;5072815;28;20115;-63
2022/07/09 12:56:50;;;;;;;1.15;0.40;;;28.10;57.60;;;;;;5069131;28;20081;-63
2022/07/09 12:59:41;;;;;;;1.20;0.50;;;28.20;57.50;;;;;;5078259;28;20024;-62
2022/07/09 13:02:06;;;;;;;0.70;0.40;;;28.20;56.80;;;;;;5069745;28;20044;-62
2022/07/09 13:04:32;;;;;;;0.60;0.30;;;28.30;56.80;;;;;;5066241;28;20021;-62
2022/07/09 13:06:58;;;;;;;1.98;0.50;;;28.40;56.10;;;;;;5071059;28;20031;-63
2022/07/09 13:09:23;;;;;;;1.27;0.40;;;28.50;55.60;;;;;;5068442;28;20447;-62
2022/07/09 13:11:51;;;;;;;1.23;0.50;;;28.60;55.60;;;;;;5075874;28;20567;-63
2022/07/09 13:14:17;;;;;;;1.95;0.45;;;28.70;55.40;;;;;;5072960;28;20031;-62
2022/07/09 13:16:43;;;;;;;1.05;0.47;;;28.70;54.70;;;;;;5069305;28;20610;-62